sensor_id;sensor_type;location;lat;lon;timestamp;P1;durP1;ratioP1;P2;durP2;ratioP2
69220;SDS011;56331;51.992;20.910;2022-11-18T00:00:34;10.75;;;6.62;;
69220;SDS011;56331;51.992;20.910;2022-11-18T00:03:01;13.50;;;6.62;;
69220;SDS011;56331;51.992;20.910;2022-11-18T00:05:27;10.65;;;6.47;;
69220;SDS011;56331;51.992;20.910;2022-11-18T00:07:54;10.10;;;5.72;;
69220;SDS011;56331;51.992;20.910;2022-11-18T00:10:20;10.43;;;6.10;;
69220;SDS011;56331;51.992;20.910;2022-11-18T00:12:46;8.80;;;6.30;;
69220;SDS011;56331;51.992;20.910;2022-11-18T00:15:31;11.57;;;6.85;;
69220;SDS011;56331;51.992;20.910;2022-11-18T00:17:58;10.65;;;6.58;;
69220;SDS011;56331;51.992;20.910;2022-11-18T00:20:24;10.20;;;6.30;;
69220;SDS011;56331;51.992;20.910;2022-11-18T00:22:51;12.70;;;6.90;;
69220;SDS011;56331;51.992;20.910;2022-11-18T00:25:17;9.45;;;6.00;;
69220;SDS011;56331;51.992;20.910;2022-11-18T00:27:44;10.15;;;6.17;;
69220;SDS011;56331;51.992;20.910;2022-11-18T00:30:10;10.90;;;6.90;;
69220;SDS011;56331;51.992;20.910;2022-11-18T00:32:37;12.07;;;6.60;;
69220;SDS011;56331;51.992;20.910;2022-11-18T00:35:04;10.13;;;6.78;;
69220;SDS011;56331;51.992;20.910;2022-11-18T00:37:31;11.12;;;6.58;;
69220;SDS011;56331;51.992;20.910;2022-11-18T00:39:58;10.23;;;6.90;;
69220;SDS011;56331;51.992;20.910;2022-11-18T00:42:25;11.85;;;6.50;;
69220;SDS011;56331;51.992;20.910;2022-11-18T00:45:10;10.40;;;6.72;;
69220;SDS011;56331;51.992;20.910;2022-11-18T00:47:36;9.88;;;6.42;;
69220;SDS011;56331;51.992;20.910;2022-11-18T00:50:03;11.93;;;6.72;;
69220;SDS011;56331;51.992;20.910;2022-11-18T00:52:30;10.63;;;6.62;;
69220;SDS011;56331;51.992;20.910;2022-11-18T00:55:00;10.90;;;7.30;;
69220;SDS011;56331;51.992;20.910;2022-11-18T00:57:26;10.50;;;6.80;;
69220;SDS011;56331;51.992;20.910;2022-11-18T00:59:53;12.00;;;6.92;;
69220;SDS011;56331;51.992;20.910;2022-11-18T01:02:19;10.48;;;6.50;;
69220;SDS011;56331;51.992;20.910;2022-11-18T01:04:46;10.10;;;6.25;;
69220;SDS011;56331;51.992;20.910;2022-11-18T01:07:12;10.45;;;6.60;;
69220;SDS011;56331;51.992;20.910;2022-11-18T01:09:39;10.18;;;6.65;;
69220;SDS011;56331;51.992;20.910;2022-11-18T01:12:05;11.48;;;7.17;;
69220;SDS011;56331;51.992;20.910;2022-11-18T01:14:53;12.53;;;7.35;;
69220;SDS011;56331;51.992;20.910;2022-11-18T01:17:20;12.25;;;7.12;;
69220;SDS011;56331;51.992;20.910;2022-11-18T01:19:47;11.63;;;7.20;;
69220;SDS011;56331;51.992;20.910;2022-11-18T01:22:13;11.05;;;7.22;;
69220;SDS011;56331;51.992;20.910;2022-11-18T01:24:40;13.38;;;7.20;;
69220;SDS011;56331;51.992;20.910;2022-11-18T01:27:07;10.65;;;6.47;;
69220;SDS011;56331;51.992;20.910;2022-11-18T01:29:33;11.90;;;7.17;;
69220;SDS011;56331;51.992;20.910;2022-11-18T01:32:02;12.15;;;7.08;;
69220;SDS011;56331;51.992;20.910;2022-11-18T01:34:33;12.18;;;7.55;;
69220;SDS011;56331;51.992;20.910;2022-11-18T01:36:59;13.43;;;7.60;;
69220;SDS011;56331;51.992;20.910;2022-11-18T01:39:25;11.97;;;6.60;;
69220;SDS011;56331;51.992;20.910;2022-11-18T01:41:52;13.22;;;7.05;;
69220;SDS011;56331;51.992;20.910;2022-11-18T01:47:20;12.43;;;7.35;;
69220;SDS011;56331;51.992;20.910;2022-11-18T01:49:49;11.90;;;7.10;;
69220;SDS011;56331;51.992;20.910;2022-11-18T01:52:17;11.35;;;7.15;;
69220;SDS011;56331;51.992;20.910;2022-11-18T01:54:46;11.25;;;6.50;;
69220;SDS011;56331;51.992;20.910;2022-11-18T01:57:17;11.48;;;6.67;;
69220;SDS011;56331;51.992;20.910;2022-11-18T01:59:48;10.23;;;6.58;;
69220;SDS011;56331;51.992;20.910;2022-11-18T02:02:17;12.88;;;7.58;;
69220;SDS011;56331;51.992;20.910;2022-11-18T02:04:46;11.55;;;6.60;;
69220;SDS011;56331;51.992;20.910;2022-11-18T02:07:14;9.18;;;6.35;;
69220;SDS011;56331;51.992;20.910;2022-11-18T02:09:42;11.65;;;7.53;;
69220;SDS011;56331;51.992;20.910;2022-11-18T02:12:09;10.53;;;6.45;;
69220;SDS011;56331;51.992;20.910;2022-11-18T02:14:39;9.05;;;6.37;;
69220;SDS011;56331;51.992;20.910;2022-11-18T02:25:07;11.03;;;6.08;;
69220;SDS011;56331;51.992;20.910;2022-11-18T02:27:56;10.20;;;6.30;;
69220;SDS011;56331;51.992;20.910;2022-11-18T02:33:37;12.53;;;6.55;;
69220;SDS011;56331;51.992;20.910;2022-11-18T02:36:11;10.23;;;6.30;;
69220;SDS011;56331;51.992;20.910;2022-11-18T02:38:42;9.98;;;6.42;;
69220;SDS011;56331;51.992;20.910;2022-11-18T02:41:19;9.13;;;5.90;;
69220;SDS011;56331;51.992;20.910;2022-11-18T02:43:45;10.53;;;6.47;;
69220;SDS011;56331;51.992;20.910;2022-11-18T02:48:46;10.75;;;6.67;;
69220;SDS011;56331;51.992;20.910;2022-11-18T02:53:40;9.58;;;6.22;;
69220;SDS011;56331;51.992;20.910;2022-11-18T02:56:08;9.08;;;5.85;;
69220;SDS011;56331;51.992;20.910;2022-11-18T02:58:35;9.50;;;6.28;;
69220;SDS011;56331;51.992;20.910;2022-11-18T03:01:01;10.48;;;6.33;;
69220;SDS011;56331;51.992;20.910;2022-11-18T03:03:29;9.88;;;6.20;;
69220;SDS011;56331;51.992;20.910;2022-11-18T03:09:02;10.32;;;6.28;;
69220;SDS011;56331;51.992;20.910;2022-11-18T03:11:31;11.03;;;7.03;;
69220;SDS011;56331;51.992;20.910;2022-11-18T03:16:31;9.63;;;6.17;;
69220;SDS011;56331;51.992;20.910;2022-11-18T03:19:19;9.30;;;6.05;;
69220;SDS011;56331;51.992;20.910;2022-11-18T03:22:06;10.13;;;6.50;;
69220;SDS011;56331;51.992;20.910;2022-11-18T03:24:44;10.10;;;6.40;;
69220;SDS011;56331;51.992;20.910;2022-11-18T03:29:46;10.00;;;6.40;;
69220;SDS011;56331;51.992;20.910;2022-11-18T03:32:25;9.15;;;6.80;;
69220;SDS011;56331;51.992;20.910;2022-11-18T03:37:18;8.93;;;5.80;;
69220;SDS011;56331;51.992;20.910;2022-11-18T03:39:49;10.28;;;6.15;;
69220;SDS011;56331;51.992;20.910;2022-11-18T03:42:24;8.18;;;5.75;;
69220;SDS011;56331;51.992;20.910;2022-11-18T03:45:00;8.50;;;6.00;;
69220;SDS011;56331;51.992;20.910;2022-11-18T03:47:32;7.87;;;5.42;;
69220;SDS011;56331;51.992;20.910;2022-11-18T03:50:11;10.40;;;6.25;;
69220;SDS011;56331;51.992;20.910;2022-11-18T03:52:40;8.73;;;5.50;;
69220;SDS011;56331;51.992;20.910;2022-11-18T03:55:24;8.63;;;5.35;;
69220;SDS011;56331;51.992;20.910;2022-11-18T03:57:56;8.53;;;5.90;;
69220;SDS011;56331;51.992;20.910;2022-11-18T04:03:06;8.13;;;5.20;;
69220;SDS011;56331;51.992;20.910;2022-11-18T04:05:35;9.80;;;5.55;;
69220;SDS011;56331;51.992;20.910;2022-11-18T04:10:33;8.65;;;5.25;;
69220;SDS011;56331;51.992;20.910;2022-11-18T04:13:14;7.70;;;5.35;;
69220;SDS011;56331;51.992;20.910;2022-11-18T04:15:54;9.20;;;5.60;;
69220;SDS011;56331;51.992;20.910;2022-11-18T04:18:20;7.60;;;5.22;;
69220;SDS011;56331;51.992;20.910;2022-11-18T04:20:47;6.65;;;4.85;;
69220;SDS011;56331;51.992;20.910;2022-11-18T04:23:14;6.85;;;4.75;;
69220;SDS011;56331;51.992;20.910;2022-11-18T04:25:40;7.15;;;5.22;;
69220;SDS011;56331;51.992;20.910;2022-11-18T04:28:06;6.83;;;5.00;;
69220;SDS011;56331;51.992;20.910;2022-11-18T04:30:33;7.50;;;5.15;;
69220;SDS011;56331;51.992;20.910;2022-11-18T04:33:00;6.80;;;4.72;;
69220;SDS011;56331;51.992;20.910;2022-11-18T04:35:26;7.53;;;5.00;;
69220;SDS011;56331;51.992;20.910;2022-11-18T04:37:53;6.97;;;4.62;;
69220;SDS011;56331;51.992;20.910;2022-11-18T04:40:19;7.62;;;5.08;;
69220;SDS011;56331;51.992;20.910;2022-11-18T04:42:46;7.28;;;5.03;;
69220;SDS011;56331;51.992;20.910;2022-11-18T04:45:13;6.75;;;4.85;;
69220;SDS011;56331;51.992;20.910;2022-11-18T04:47:40;8.23;;;5.12;;
69220;SDS011;56331;51.992;20.910;2022-11-18T04:50:07;6.70;;;4.37;;
69220;SDS011;56331;51.992;20.910;2022-11-18T04:52:34;7.45;;;4.72;;
69220;SDS011;56331;51.992;20.910;2022-11-18T04:55:01;7.37;;;4.70;;
69220;SDS011;56331;51.992;20.910;2022-11-18T04:57:28;6.78;;;4.95;;
69220;SDS011;56331;51.992;20.910;2022-11-18T04:59:55;6.85;;;4.78;;
69220;SDS011;56331;51.992;20.910;2022-11-18T05:02:21;6.53;;;4.97;;
69220;SDS011;56331;51.992;20.910;2022-11-18T05:04:47;6.97;;;4.58;;
69220;SDS011;56331;51.992;20.910;2022-11-18T05:07:14;5.97;;;4.15;;
69220;SDS011;56331;51.992;20.910;2022-11-18T05:09:41;7.05;;;4.83;;
69220;SDS011;56331;51.992;20.910;2022-11-18T05:12:14;6.97;;;4.87;;
69220;SDS011;56331;51.992;20.910;2022-11-18T05:14:57;6.42;;;4.95;;
69220;SDS011;56331;51.992;20.910;2022-11-18T05:17:24;5.85;;;4.08;;
69220;SDS011;56331;51.992;20.910;2022-11-18T05:19:50;6.33;;;4.37;;
69220;SDS011;56331;51.992;20.910;2022-11-18T05:22:17;6.17;;;4.30;;
69220;SDS011;56331;51.992;20.910;2022-11-18T05:24:43;6.70;;;4.58;;
69220;SDS011;56331;51.992;20.910;2022-11-18T05:27:10;6.15;;;4.40;;
69220;SDS011;56331;51.992;20.910;2022-11-18T05:29:37;6.03;;;4.22;;
69220;SDS011;56331;51.992;20.910;2022-11-18T05:32:04;6.12;;;4.45;;
69220;SDS011;56331;51.992;20.910;2022-11-18T05:34:30;6.47;;;4.03;;
69220;SDS011;56331;51.992;20.910;2022-11-18T05:36:57;6.15;;;4.37;;
69220;SDS011;56331;51.992;20.910;2022-11-18T05:39:25;5.20;;;4.10;;
69220;SDS011;56331;51.992;20.910;2022-11-18T05:41:51;5.28;;;4.08;;
69220;SDS011;56331;51.992;20.910;2022-11-18T05:44:36;6.35;;;4.17;;
69220;SDS011;56331;51.992;20.910;2022-11-18T05:47:02;5.85;;;4.33;;
69220;SDS011;56331;51.992;20.910;2022-11-18T05:49:29;5.40;;;3.60;;
69220;SDS011;56331;51.992;20.910;2022-11-18T05:51:55;6.28;;;4.42;;
69220;SDS011;56331;51.992;20.910;2022-11-18T05:54:22;4.15;;;3.58;;
69220;SDS011;56331;51.992;20.910;2022-11-18T05:56:48;5.42;;;3.83;;
69220;SDS011;56331;51.992;20.910;2022-11-18T05:59:17;5.67;;;3.67;;
69220;SDS011;56331;51.992;20.910;2022-11-18T06:04:33;4.73;;;3.43;;
69220;SDS011;56331;51.992;20.910;2022-11-18T06:07:07;6.00;;;4.12;;
69220;SDS011;56331;51.992;20.910;2022-11-18T06:09:41;5.30;;;3.80;;
69220;SDS011;56331;51.992;20.910;2022-11-18T06:12:12;6.90;;;3.50;;
69220;SDS011;56331;51.992;20.910;2022-11-18T06:14:42;5.90;;;3.67;;
69220;SDS011;56331;51.992;20.910;2022-11-18T06:17:14;6.62;;;3.92;;
69220;SDS011;56331;51.992;20.910;2022-11-18T06:19:41;5.55;;;3.42;;
69220;SDS011;56331;51.992;20.910;2022-11-18T06:22:08;4.53;;;3.27;;
69220;SDS011;56331;51.992;20.910;2022-11-18T06:24:35;4.87;;;3.45;;
69220;SDS011;56331;51.992;20.910;2022-11-18T06:27:04;4.90;;;3.37;;
69220;SDS011;56331;51.992;20.910;2022-11-18T06:29:31;4.55;;;3.10;;
69220;SDS011;56331;51.992;20.910;2022-11-18T06:31:58;4.83;;;3.60;;
69220;SDS011;56331;51.992;20.910;2022-11-18T06:34:24;4.83;;;3.60;;
69220;SDS011;56331;51.992;20.910;2022-11-18T06:36:50;5.12;;;3.65;;
69220;SDS011;56331;51.992;20.910;2022-11-18T06:39:17;5.33;;;3.52;;
69220;SDS011;56331;51.992;20.910;2022-11-18T06:41:43;5.10;;;3.70;;
69220;SDS011;56331;51.992;20.910;2022-11-18T06:44:12;5.60;;;3.33;;
69220;SDS011;56331;51.992;20.910;2022-11-18T06:46:44;7.90;;;4.05;;
69220;SDS011;56331;51.992;20.910;2022-11-18T06:49:23;5.10;;;3.17;;
69220;SDS011;56331;51.992;20.910;2022-11-18T06:51:50;5.58;;;3.62;;
69220;SDS011;56331;51.992;20.910;2022-11-18T06:54:17;4.58;;;3.33;;
69220;SDS011;56331;51.992;20.910;2022-11-18T06:56:43;5.67;;;3.15;;
69220;SDS011;56331;51.992;20.910;2022-11-18T06:59:10;4.65;;;3.30;;
69220;SDS011;56331;51.992;20.910;2022-11-18T07:01:37;4.75;;;3.72;;
69220;SDS011;56331;51.992;20.910;2022-11-18T07:04:06;5.87;;;3.60;;
69220;SDS011;56331;51.992;20.910;2022-11-18T07:06:33;3.90;;;2.92;;
69220;SDS011;56331;51.992;20.910;2022-11-18T07:09:02;4.50;;;3.00;;
69220;SDS011;56331;51.992;20.910;2022-11-18T07:11:30;4.37;;;2.92;;
69220;SDS011;56331;51.992;20.910;2022-11-18T07:13:57;4.55;;;3.15;;
69220;SDS011;56331;51.992;20.910;2022-11-18T07:16:24;4.42;;;3.20;;
69220;SDS011;56331;51.992;20.910;2022-11-18T07:18:52;3.58;;;2.83;;
69220;SDS011;56331;51.992;20.910;2022-11-18T07:21:20;4.85;;;3.47;;
69220;SDS011;56331;51.992;20.910;2022-11-18T07:23:48;4.27;;;3.00;;
69220;SDS011;56331;51.992;20.910;2022-11-18T07:26:28;5.12;;;3.17;;
69220;SDS011;56331;51.992;20.910;2022-11-18T07:28:48;4.42;;;3.08;;
69220;SDS011;56331;51.992;20.910;2022-11-18T07:31:18;4.03;;;2.50;;
69220;SDS011;56331;51.992;20.910;2022-11-18T07:33:46;3.90;;;2.80;;
69220;SDS011;56331;51.992;20.910;2022-11-18T07:36:16;3.98;;;2.60;;
69220;SDS011;56331;51.992;20.910;2022-11-18T07:38:45;3.70;;;2.60;;
69220;SDS011;56331;51.992;20.910;2022-11-18T07:41:13;4.25;;;2.70;;
69220;SDS011;56331;51.992;20.910;2022-11-18T07:43:41;4.55;;;2.85;;
69220;SDS011;56331;51.992;20.910;2022-11-18T07:48:37;3.43;;;2.50;;
69220;SDS011;56331;51.992;20.910;2022-11-18T07:51:04;3.45;;;2.50;;
69220;SDS011;56331;51.992;20.910;2022-11-18T07:53:31;4.00;;;2.92;;
69220;SDS011;56331;51.992;20.910;2022-11-18T07:55:59;4.67;;;2.70;;
69220;SDS011;56331;51.992;20.910;2022-11-18T07:58:26;3.30;;;2.15;;
69220;SDS011;56331;51.992;20.910;2022-11-18T08:00:52;10.58;;;3.40;;
69220;SDS011;56331;51.992;20.910;2022-11-18T08:03:19;17.10;;;4.83;;
69220;SDS011;56331;51.992;20.910;2022-11-18T08:05:51;21.25;;;5.12;;
69220;SDS011;56331;51.992;20.910;2022-11-18T08:08:17;16.00;;;4.30;;
69220;SDS011;56331;51.992;20.910;2022-11-18T08:10:44;16.40;;;3.90;;
69220;SDS011;56331;51.992;20.910;2022-11-18T08:13:10;12.47;;;3.58;;
69220;SDS011;56331;51.992;20.910;2022-11-18T08:15:39;11.80;;;3.45;;
69220;SDS011;56331;51.992;20.910;2022-11-18T08:18:08;8.03;;;3.45;;
69220;SDS011;56331;51.992;20.910;2022-11-18T08:20:34;6.17;;;3.08;;
69220;SDS011;56331;51.992;20.910;2022-11-18T08:23:01;9.68;;;3.30;;
69220;SDS011;56331;51.992;20.910;2022-11-18T08:25:27;7.12;;;3.17;;
69220;SDS011;56331;51.992;20.910;2022-11-18T08:27:54;7.05;;;3.15;;
69220;SDS011;56331;51.992;20.910;2022-11-18T08:30:20;9.93;;;3.90;;
69220;SDS011;56331;51.992;20.910;2022-11-18T08:32:47;9.05;;;3.02;;
69220;SDS011;56331;51.992;20.910;2022-11-18T08:35:13;10.08;;;3.25;;
69220;SDS011;56331;51.992;20.910;2022-11-18T08:37:40;8.35;;;2.92;;
69220;SDS011;56331;51.992;20.910;2022-11-18T08:40:06;8.70;;;3.02;;
69220;SDS011;56331;51.992;20.910;2022-11-18T08:42:34;7.47;;;3.30;;
69220;SDS011;56331;51.992;20.910;2022-11-18T08:45:07;6.90;;;3.00;;
69220;SDS011;56331;51.992;20.910;2022-11-18T08:47:33;5.60;;;2.92;;
69220;SDS011;56331;51.992;20.910;2022-11-18T08:50:00;5.05;;;2.80;;
69220;SDS011;56331;51.992;20.910;2022-11-18T08:52:26;6.10;;;2.58;;
69220;SDS011;56331;51.992;20.910;2022-11-18T08:54:53;7.10;;;2.83;;
69220;SDS011;56331;51.992;20.910;2022-11-18T08:57:19;6.50;;;2.87;;
69220;SDS011;56331;51.992;20.910;2022-11-18T08:59:46;5.92;;;2.77;;
69220;SDS011;56331;51.992;20.910;2022-11-18T09:02:12;5.33;;;2.52;;
69220;SDS011;56331;51.992;20.910;2022-11-18T09:04:45;7.33;;;2.65;;
69220;SDS011;56331;51.992;20.910;2022-11-18T09:07:15;7.42;;;2.50;;
69220;SDS011;56331;51.992;20.910;2022-11-18T09:09:43;7.17;;;3.08;;
69220;SDS011;56331;51.992;20.910;2022-11-18T09:12:09;7.03;;;2.87;;
69220;SDS011;56331;51.992;20.910;2022-11-18T09:14:37;4.75;;;2.90;;
69220;SDS011;56331;51.992;20.910;2022-11-18T09:17:04;6.80;;;2.70;;
69220;SDS011;56331;51.992;20.910;2022-11-18T09:19:30;6.80;;;2.90;;
69220;SDS011;56331;51.992;20.910;2022-11-18T09:21:57;4.60;;;2.85;;
69220;SDS011;56331;51.992;20.910;2022-11-18T09:24:23;5.55;;;2.70;;
69220;SDS011;56331;51.992;20.910;2022-11-18T09:26:50;6.65;;;2.75;;
69220;SDS011;56331;51.992;20.910;2022-11-18T09:29:18;4.62;;;2.90;;
69220;SDS011;56331;51.992;20.910;2022-11-18T09:31:46;3.58;;;2.27;;
69220;SDS011;56331;51.992;20.910;2022-11-18T09:34:13;5.05;;;2.65;;
69220;SDS011;56331;51.992;20.910;2022-11-18T09:36:39;5.78;;;2.80;;
69220;SDS011;56331;51.992;20.910;2022-11-18T09:39:06;6.15;;;2.77;;
69220;SDS011;56331;51.992;20.910;2022-11-18T09:41:40;4.35;;;2.70;;
69220;SDS011;56331;51.992;20.910;2022-11-18T09:49:30;6.35;;;2.72;;
69220;SDS011;56331;51.992;20.910;2022-11-18T09:52:01;5.05;;;2.42;;
69220;SDS011;56331;51.992;20.910;2022-11-18T09:54:30;4.87;;;2.58;;
69220;SDS011;56331;51.992;20.910;2022-11-18T09:57:02;4.65;;;2.30;;
69220;SDS011;56331;51.992;20.910;2022-11-18T09:59:41;4.07;;;2.07;;
69220;SDS011;56331;51.992;20.910;2022-11-18T10:05:00;5.17;;;2.47;;
69220;SDS011;56331;51.992;20.910;2022-11-18T10:07:34;4.05;;;2.42;;
69220;SDS011;56331;51.992;20.910;2022-11-18T10:10:03;3.15;;;2.37;;
69220;SDS011;56331;51.992;20.910;2022-11-18T10:12:34;4.45;;;2.15;;
69220;SDS011;56331;51.992;20.910;2022-11-18T10:20:41;3.55;;;2.10;;
69220;SDS011;56331;51.992;20.910;2022-11-18T10:25:46;3.85;;;2.17;;
69220;SDS011;56331;51.992;20.910;2022-11-18T10:28:22;3.27;;;2.22;;
69220;SDS011;56331;51.992;20.910;2022-11-18T10:30:48;3.22;;;1.75;;
69220;SDS011;56331;51.992;20.910;2022-11-18T10:33:22;2.70;;;2.17;;
69220;SDS011;56331;51.992;20.910;2022-11-18T10:35:48;3.05;;;1.95;;
69220;SDS011;56331;51.992;20.910;2022-11-18T10:38:16;3.72;;;2.30;;
69220;SDS011;56331;51.992;20.910;2022-11-18T10:40:57;3.00;;;1.87;;
69220;SDS011;56331;51.992;20.910;2022-11-18T10:46:28;3.33;;;2.10;;
69220;SDS011;56331;51.992;20.910;2022-11-18T10:51:42;4.00;;;2.22;;
69220;SDS011;56331;51.992;20.910;2022-11-18T10:54:18;4.78;;;2.27;;
69220;SDS011;56331;51.992;20.910;2022-11-18T10:56:48;3.35;;;1.80;;
69220;SDS011;56331;51.992;20.910;2022-11-18T10:59:29;2.65;;;1.65;;
69220;SDS011;56331;51.992;20.910;2022-11-18T11:02:20;3.50;;;1.92;;
69220;SDS011;56331;51.992;20.910;2022-11-18T11:04:53;3.70;;;2.35;;
69220;SDS011;56331;51.992;20.910;2022-11-18T11:07:27;2.50;;;1.50;;
69220;SDS011;56331;51.992;20.910;2022-11-18T11:12:43;3.35;;;1.70;;
69220;SDS011;56331;51.992;20.910;2022-11-18T11:15:12;3.45;;;1.90;;
69220;SDS011;56331;51.992;20.910;2022-11-18T11:17:47;2.45;;;1.60;;
69220;SDS011;56331;51.992;20.910;2022-11-18T11:20:20;4.42;;;1.82;;
69220;SDS011;56331;51.992;20.910;2022-11-18T11:22:51;3.77;;;1.95;;
69220;SDS011;56331;51.992;20.910;2022-11-18T11:25:25;3.27;;;1.82;;
69220;SDS011;56331;51.992;20.910;2022-11-18T11:27:57;3.92;;;1.92;;
69220;SDS011;56331;51.992;20.910;2022-11-18T11:33:01;3.02;;;1.80;;
69220;SDS011;56331;51.992;20.910;2022-11-18T11:35:46;2.62;;;1.72;;
69220;SDS011;56331;51.992;20.910;2022-11-18T11:44:06;3.85;;;1.70;;
69220;SDS011;56331;51.992;20.910;2022-11-18T11:46:34;3.40;;;2.00;;
69220;SDS011;56331;51.992;20.910;2022-11-18T11:49:14;3.47;;;1.92;;
69220;SDS011;56331;51.992;20.910;2022-11-18T11:56:57;2.90;;;1.80;;
69220;SDS011;56331;51.992;20.910;2022-11-18T12:08:14;2.37;;;1.77;;
69220;SDS011;56331;51.992;20.910;2022-11-18T12:13:54;2.52;;;1.90;;
69220;SDS011;56331;51.992;20.910;2022-11-18T12:16:43;2.58;;;1.85;;
69220;SDS011;56331;51.992;20.910;2022-11-18T12:19:14;4.00;;;1.95;;
69220;SDS011;56331;51.992;20.910;2022-11-18T12:27:04;3.50;;;2.17;;
69220;SDS011;56331;51.992;20.910;2022-11-18T12:29:38;5.03;;;2.02;;
69220;SDS011;56331;51.992;20.910;2022-11-18T12:40:33;4.12;;;1.80;;
69220;SDS011;56331;51.992;20.910;2022-11-18T12:43:02;3.42;;;1.77;;
69220;SDS011;56331;51.992;20.910;2022-11-18T12:45:55;2.95;;;1.85;;
69220;SDS011;56331;51.992;20.910;2022-11-18T12:50:56;2.35;;;1.65;;
69220;SDS011;56331;51.992;20.910;2022-11-18T12:53:31;4.35;;;1.52;;
69220;SDS011;56331;51.992;20.910;2022-11-18T12:56:11;3.90;;;1.80;;
69220;SDS011;56331;51.992;20.910;2022-11-18T12:58:52;2.77;;;1.77;;
69220;SDS011;56331;51.992;20.910;2022-11-18T13:01:21;3.33;;;1.80;;
69220;SDS011;56331;51.992;20.910;2022-11-18T13:03:50;2.45;;;1.52;;
69220;SDS011;56331;51.992;20.910;2022-11-18T13:06:20;2.08;;;1.45;;
69220;SDS011;56331;51.992;20.910;2022-11-18T13:08:55;2.55;;;1.30;;
69220;SDS011;56331;51.992;20.910;2022-11-18T13:11:27;4.65;;;1.55;;
69220;SDS011;56331;51.992;20.910;2022-11-18T13:14:17;2.80;;;1.80;;
69220;SDS011;56331;51.992;20.910;2022-11-18T13:20:23;1.80;;;1.40;;
69220;SDS011;56331;51.992;20.910;2022-11-18T13:25:51;1.92;;;1.30;;
69220;SDS011;56331;51.992;20.910;2022-11-18T13:28:29;2.27;;;1.32;;
69220;SDS011;56331;51.992;20.910;2022-11-18T13:33:53;2.02;;;1.60;;
69220;SDS011;56331;51.992;20.910;2022-11-18T13:36:20;2.98;;;1.57;;
69220;SDS011;56331;51.992;20.910;2022-11-18T13:38:58;2.05;;;1.55;;
69220;SDS011;56331;51.992;20.910;2022-11-18T13:41:24;1.65;;;1.20;;
69220;SDS011;56331;51.992;20.910;2022-11-18T13:46:20;2.55;;;1.50;;
69220;SDS011;56331;51.992;20.910;2022-11-18T13:48:53;2.25;;;1.72;;
69220;SDS011;56331;51.992;20.910;2022-11-18T13:51:17;2.72;;;1.52;;
69220;SDS011;56331;51.992;20.910;2022-11-18T13:53:46;3.20;;;1.80;;
69220;SDS011;56331;51.992;20.910;2022-11-18T13:56:18;2.00;;;1.67;;
69220;SDS011;56331;51.992;20.910;2022-11-18T14:01:24;4.15;;;1.55;;
69220;SDS011;56331;51.992;20.910;2022-11-18T14:04:00;2.35;;;1.60;;
69220;SDS011;56331;51.992;20.910;2022-11-18T14:09:04;2.83;;;1.65;;
69220;SDS011;56331;51.992;20.910;2022-11-18T14:11:42;3.12;;;1.60;;
69220;SDS011;56331;51.992;20.910;2022-11-18T14:14:10;2.95;;;1.50;;
69220;SDS011;56331;51.992;20.910;2022-11-18T14:16:43;2.47;;;1.40;;
69220;SDS011;56331;51.992;20.910;2022-11-18T14:19:27;2.50;;;1.50;;
69220;SDS011;56331;51.992;20.910;2022-11-18T14:27:46;1.87;;;1.25;;
69220;SDS011;56331;51.992;20.910;2022-11-18T14:33:08;2.50;;;1.35;;
69220;SDS011;56331;51.992;20.910;2022-11-18T14:35:31;4.12;;;1.70;;
69220;SDS011;56331;51.992;20.910;2022-11-18T14:37:58;2.05;;;1.50;;
69220;SDS011;56331;51.992;20.910;2022-11-18T14:40:25;2.10;;;1.32;;
69220;SDS011;56331;51.992;20.910;2022-11-18T14:42:52;2.45;;;1.45;;
69220;SDS011;56331;51.992;20.910;2022-11-18T14:45:18;2.67;;;1.47;;
69220;SDS011;56331;51.992;20.910;2022-11-18T14:47:44;1.87;;;1.50;;
69220;SDS011;56331;51.992;20.910;2022-11-18T14:50:11;2.52;;;1.45;;
69220;SDS011;56331;51.992;20.910;2022-11-18T14:52:39;2.52;;;1.60;;
69220;SDS011;56331;51.992;20.910;2022-11-18T14:55:05;2.33;;;1.60;;
69220;SDS011;56331;51.992;20.910;2022-11-18T14:57:34;4.27;;;1.60;;
69220;SDS011;56331;51.992;20.910;2022-11-18T15:00:01;2.62;;;1.67;;
69220;SDS011;56331;51.992;20.910;2022-11-18T15:02:27;4.10;;;1.90;;
69220;SDS011;56331;51.992;20.910;2022-11-18T15:04:54;3.20;;;1.95;;
69220;SDS011;56331;51.992;20.910;2022-11-18T15:07:22;2.25;;;1.50;;
69220;SDS011;56331;51.992;20.910;2022-11-18T15:09:48;2.52;;;1.47;;
69220;SDS011;56331;51.992;20.910;2022-11-18T15:12:15;2.25;;;1.50;;
69220;SDS011;56331;51.992;20.910;2022-11-18T15:14:41;2.08;;;1.50;;
69220;SDS011;56331;51.992;20.910;2022-11-18T15:17:09;2.20;;;1.65;;
69220;SDS011;56331;51.992;20.910;2022-11-18T15:19:37;3.08;;;1.80;;
69220;SDS011;56331;51.992;20.910;2022-11-18T15:22:05;2.60;;;1.57;;
69220;SDS011;56331;51.992;20.910;2022-11-18T15:24:31;2.72;;;1.70;;
69220;SDS011;56331;51.992;20.910;2022-11-18T15:26:58;4.00;;;1.72;;
69220;SDS011;56331;51.992;20.910;2022-11-18T15:29:24;3.87;;;2.30;;
69220;SDS011;56331;51.992;20.910;2022-11-18T15:31:51;2.35;;;1.67;;
69220;SDS011;56331;51.992;20.910;2022-11-18T15:34:18;2.52;;;1.55;;
69220;SDS011;56331;51.992;20.910;2022-11-18T15:36:45;2.67;;;1.80;;
69220;SDS011;56331;51.992;20.910;2022-11-18T15:39:13;2.20;;;1.50;;
69220;SDS011;56331;51.992;20.910;2022-11-18T15:41:40;2.20;;;1.70;;
69220;SDS011;56331;51.992;20.910;2022-11-18T15:44:08;2.83;;;2.00;;
69220;SDS011;56331;51.992;20.910;2022-11-18T15:46:35;2.40;;;1.60;;
69220;SDS011;56331;51.992;20.910;2022-11-18T15:49:01;2.47;;;1.75;;
69220;SDS011;56331;51.992;20.910;2022-11-18T15:51:29;2.67;;;1.77;;
69220;SDS011;56331;51.992;20.910;2022-11-18T15:53:55;2.87;;;2.00;;
69220;SDS011;56331;51.992;20.910;2022-11-18T15:58:59;3.87;;;2.00;;
69220;SDS011;56331;51.992;20.910;2022-11-18T16:01:29;3.22;;;1.72;;
69220;SDS011;56331;51.992;20.910;2022-11-18T16:03:57;3.65;;;1.90;;
69220;SDS011;56331;51.992;20.910;2022-11-18T16:06:24;3.33;;;1.95;;
69220;SDS011;56331;51.992;20.910;2022-11-18T16:08:51;5.03;;;1.70;;
69220;SDS011;56331;51.992;20.910;2022-11-18T16:11:18;3.33;;;2.05;;
69220;SDS011;56331;51.992;20.910;2022-11-18T16:14:04;4.03;;;1.82;;
69220;SDS011;56331;51.992;20.910;2022-11-18T16:16:33;3.30;;;2.00;;
69220;SDS011;56331;51.992;20.910;2022-11-18T16:19:00;3.80;;;1.82;;
69220;SDS011;56331;51.992;20.910;2022-11-18T16:21:28;2.80;;;1.80;;
69220;SDS011;56331;51.992;20.910;2022-11-18T16:23:57;2.67;;;1.67;;
69220;SDS011;56331;51.992;20.910;2022-11-18T16:26:25;2.40;;;1.80;;
69220;SDS011;56331;51.992;20.910;2022-11-18T16:28:53;4.37;;;1.60;;
69220;SDS011;56331;51.992;20.910;2022-11-18T16:31:19;4.95;;;1.70;;
69220;SDS011;56331;51.992;20.910;2022-11-18T16:34:11;3.10;;;1.57;;
69220;SDS011;56331;51.992;20.910;2022-11-18T16:36:39;4.47;;;1.80;;
69220;SDS011;56331;51.992;20.910;2022-11-18T16:39:09;4.28;;;1.80;;
69220;SDS011;56331;51.992;20.910;2022-11-18T16:41:37;9.90;;;2.00;;
69220;SDS011;56331;51.992;20.910;2022-11-18T16:44:06;2.35;;;1.87;;
69220;SDS011;56331;51.992;20.910;2022-11-18T16:46:36;4.42;;;1.80;;
69220;SDS011;56331;51.992;20.910;2022-11-18T16:49:04;2.98;;;1.72;;
69220;SDS011;56331;51.992;20.910;2022-11-18T16:51:32;2.65;;;1.75;;
69220;SDS011;56331;51.992;20.910;2022-11-18T16:54:00;3.42;;;2.20;;
69220;SDS011;56331;51.992;20.910;2022-11-18T16:56:30;2.60;;;1.85;;
69220;SDS011;56331;51.992;20.910;2022-11-18T16:59:02;2.63;;;2.07;;